createdAt,value
2022-10-12T00:08:51.200Z,101273.05
2022-10-12T00:24:00.980Z,101280.63
2022-10-12T00:39:06.662Z,101291.46
2022-10-12T00:54:14.872Z,101298.27
2022-10-12T01:09:19.477Z,101299.09
2022-10-12T01:24:44.904Z,101303.44
2022-10-12T01:39:54.755Z,101295.29
2022-10-12T01:55:17.629Z,101295.99
2022-10-12T02:10:38.869Z,101303.68
2022-10-12T02:25:42.445Z,101300.34
2022-10-12T02:40:54.615Z,101296.48
2022-10-12T02:56:05.823Z,101303.99
2022-10-12T03:11:12.542Z,101303.98
2022-10-12T03:26:16.091Z,101308.83
2022-10-12T03:41:19.346Z,101323.84
2022-10-12T03:56:22.294Z,101330.37
2022-10-12T04:11:25.612Z,101342.77
2022-10-12T04:26:29.073Z,101352.88
2022-10-12T04:41:32.474Z,101354.64
2022-10-12T04:56:35.455Z,101361.45
2022-10-12T05:11:38.436Z,101357.50
2022-10-12T05:26:41.822Z,101360.02
2022-10-12T05:41:44.906Z,101377.85
2022-10-12T05:56:47.875Z,101383.48
2022-10-12T06:11:50.863Z,101384.21
2022-10-12T06:26:54.201Z,101402.33
2022-10-12T06:41:57.961Z,101418.36
2022-10-12T06:57:07.474Z,101422.04
2022-10-12T07:12:10.764Z,101425.15
2022-10-12T07:27:14.229Z,101437.19
2022-10-12T07:42:19.612Z,101441.60
2022-10-12T07:57:22.904Z,101444.80
2022-10-12T08:12:26.120Z,101441.26
2022-10-12T08:27:32.587Z,101435.67
2022-10-12T08:42:54.073Z,101430.88
2022-10-12T08:57:57.683Z,101430.52
2022-10-12T09:13:43.378Z,101436.42
2022-10-12T09:28:52.467Z,101433.45
2022-10-12T09:43:59.440Z,101430.52
2022-10-12T09:59:08.106Z,101433.49
2022-10-12T10:14:15.950Z,101424.42
2022-10-12T10:29:22.524Z,101420.98
2022-10-12T10:44:34.404Z,101421.71
2022-10-12T11:00:26.035Z,101414.80
2022-10-12T11:15:44.464Z,101409.05
2022-10-12T11:30:51.856Z,101407.44
2022-10-12T11:45:58.750Z,101404.64
2022-10-12T12:01:13.177Z,101404.90
2022-10-12T12:16:16.083Z,101408.34
2022-10-12T12:31:24.923Z,101403.09
2022-10-12T12:47:00.557Z,101401.08
2022-10-12T13:02:24.681Z,101394.16
2022-10-12T13:18:28.583Z,101393.14
2022-10-12T13:34:01.430Z,101385.01
2022-10-12T13:49:22.105Z,101387.05
2022-10-12T14:04:28.976Z,101390.36
2022-10-12T14:19:32.382Z,101387.79
2022-10-12T14:34:41.613Z,101380.14
2022-10-12T14:49:47.079Z,101377.31
2022-10-12T15:04:51.866Z,101371.29
2022-10-12T15:19:55.886Z,101370.64
2022-10-12T15:34:59.232Z,101366.72
2022-10-12T15:50:02.589Z,101369.23
2022-10-12T16:05:27.069Z,101366.34
2022-10-12T16:20:32.868Z,101361.34
2022-10-12T16:35:40.104Z,101357.82
2022-10-12T16:50:44.129Z,101362.86
2022-10-12T17:05:47.431Z,101365.88
2022-10-12T17:20:52.922Z,101377.02
2022-10-12T17:35:56.711Z,101380.60
2022-10-12T17:51:10.517Z,101380.86
2022-10-12T18:06:21.064Z,101374.92
2022-10-12T18:21:27.354Z,101370.88
2022-10-12T18:36:31.527Z,101377.38
2022-10-12T18:51:38.135Z,101382.09
2022-10-12T19:06:43.244Z,101385.46
2022-10-12T19:21:47.570Z,101390.80
2022-10-12T19:36:51.246Z,101392.49
2022-10-12T19:51:54.297Z,101387.46
2022-10-12T20:26:11.044Z,101385.48
2022-10-12T20:41:17.503Z,101378.83
2022-10-12T20:56:21.079Z,101380.52
2022-10-12T21:11:25.556Z,101385.00
2022-10-12T21:26:30.867Z,101388.59
2022-10-12T21:41:34.123Z,101399.45
2022-10-12T21:56:38.194Z,101407.67
2022-10-12T22:11:41.154Z,101404.30
2022-10-12T22:26:46.437Z,101399.71
2022-10-12T22:41:49.723Z,101400.97
2022-10-12T22:56:53.204Z,101395.60
2022-10-12T23:11:56.247Z,101392.05
2022-10-12T23:26:59.324Z,101394.89
2022-10-12T23:42:02.539Z,101390.60
2022-10-12T23:57:13.973Z,101397.61
